Time;durP1;ratioP1;P1;durP2;ratioP2;P2;SDS_P1;SDS_P2;PMS_P1;PMS_P2;Temp;Humidity;BMP_temperature;BMP_pressure;BME280_temperature;BME280_humidity;BME280_pressure;Samples;Min_cycle;Max_cycle;Signal;HPM_P1;HPM_P2
2021/12/23 00:01:46;;;;;;;;;19.67;19.00;;;;;;;;5139497;27;13504;-74
2021/12/23 00:04:12;;;;;;;;;23.00;21.33;;;;;;;;5139768;27;8782;-76
2021/12/23 00:06:38;;;;;;;;;23.00;23.00;;;;;;;;5139591;27;13514;-76
2021/12/23 00:09:05;;;;;;;;;24.33;17.67;;;;;;;;5139987;27;8943;-76
2021/12/23 00:11:30;;;;;;;;;23.33;19.33;;;;;;;;5139963;27;12598;-76
2021/12/23 00:14:04;;;;;;;;;22.67;14.00;;;;;;;;5139520;27;11377;-76
2021/12/23 00:19:20;;;;;;;;;18.00;17.33;;;;;;;;5139364;27;12573;-76
2021/12/23 00:24:29;;;;;;;;;20.33;17.67;;;;;;;;5139821;27;13258;-77
2021/12/23 00:26:54;;;;;;;;;23.67;20.00;;;;;;;;5139341;27;11362;-76
2021/12/23 00:29:19;;;;;;;;;22.67;17.67;;;;;;;;5139615;27;13496;-76
2021/12/23 00:31:45;;;;;;;;;25.67;20.00;;;;;;;;5139170;27;12398;-76
2021/12/23 00:34:10;;;;;;;;;24.67;20.00;;;;;;;;5139277;27;12402;-76
2021/12/23 00:36:36;;;;;;;;;25.00;21.33;;;;;;;;5139246;27;8913;-76
2021/12/23 00:39:05;;;;;;;;;27.00;21.33;;;;;;;;5140051;27;11551;-77
2021/12/23 00:41:31;;;;;;;;;28.33;25.67;;;;;;;;5142110;27;8786;-76
2021/12/23 00:43:57;;;;;;;;;24.33;19.00;;;;;;;;5142477;27;11619;-76
2021/12/23 00:46:22;;;;;;;;;22.33;19.33;;;;;;;;5143453;27;12880;-76
2021/12/23 00:48:47;;;;;;;;;22.33;18.67;;;;;;;;5143447;27;11538;-76
2021/12/23 00:51:14;;;;;;;;;22.00;20.00;;;;;;;;5143757;27;8862;-76
2021/12/23 00:53:40;;;;;;;;;22.33;22.00;;;;;;;;5142829;27;12266;-76
2021/12/23 00:56:06;;;;;;;;;25.33;22.33;;;;;;;;5142579;27;9714;-76
2021/12/23 00:58:31;;;;;;;;;25.00;21.33;;;;;;;;5142135;27;11771;-75
2021/12/23 01:00:59;;;;;;;;;24.33;19.67;;;;;;;;5142314;27;9730;-74
2021/12/23 01:03:24;;;;;;;;;28.00;23.00;;;;;;;;5142174;27;12538;-76
2021/12/23 01:05:49;;;;;;;;;30.33;25.00;;;;;;;;5142327;27;12191;-76
2021/12/23 01:08:19;;;;;;;;;25.00;22.67;;;;;;;;5142483;27;12503;-76
2021/12/23 01:10:44;;;;;;;;;17.67;15.33;;;;;;;;5142719;27;13796;-76
2021/12/23 01:13:13;;;;;;;;;25.67;22.00;;;;;;;;5142192;27;13769;-76
2021/12/23 01:15:57;;;;;;;;;25.00;23.00;;;;;;;;5142768;27;13808;-77
2021/12/23 01:18:23;;;;;;;;;22.33;19.00;;;;;;;;5142563;27;10178;-76
2021/12/23 01:21:02;;;;;;;;;23.00;22.00;;;;;;;;5142411;27;11700;-76
2021/12/23 01:23:27;;;;;;;;;23.00;20.33;;;;;;;;5142616;27;11478;-74
2021/12/23 01:25:53;;;;;;;;;20.33;20.33;;;;;;;;5142361;27;8865;-75
2021/12/23 01:28:18;;;;;;;;;22.33;17.33;;;;;;;;5142662;27;8758;-76
2021/12/23 01:30:44;;;;;;;;;22.00;20.33;;;;;;;;5142328;27;9893;-75
2021/12/23 01:33:09;;;;;;;;;19.67;19.00;;;;;;;;5141918;27;11956;-76
2021/12/23 01:35:36;;;;;;;;;23.00;19.00;;;;;;;;5141980;27;14578;-75
2021/12/23 01:38:02;;;;;;;;;22.67;19.00;;;;;;;;5141492;27;10270;-74
2021/12/23 01:40:28;;;;;;;;;19.00;16.00;;;;;;;;5123521;27;10411;-77
2021/12/23 01:42:54;;;;;;;;;21.33;17.33;;;;;;;;5142750;27;12324;-77
2021/12/23 01:45:21;;;;;;;;;16.67;16.00;;;;;;;;5142723;27;13555;-76
2021/12/23 01:47:47;;;;;;;;;13.00;13.00;;;;;;;;5141647;27;13890;-75
2021/12/23 01:50:13;;;;;;;;;15.33;12.00;;;;;;;;5142328;27;10601;-75
2021/12/23 01:52:39;;;;;;;;;18.00;15.67;;;;;;;;5141595;27;10719;-75
2021/12/23 01:55:05;;;;;;;;;20.00;16.67;;;;;;;;5141483;27;11427;-75
2021/12/23 01:57:31;;;;;;;;;20.00;16.67;;;;;;;;5141804;27;10408;-75
2021/12/23 02:00:01;;;;;;;;;18.67;18.00;;;;;;;;5142689;27;8785;-76
2021/12/23 02:02:27;;;;;;;;;16.67;16.00;;;;;;;;5141679;27;13279;-75
2021/12/23 02:04:52;;;;;;;;;15.00;15.00;;;;;;;;5123699;27;8798;-75
2021/12/23 02:07:18;;;;;;;;;16.00;13.67;;;;;;;;5143187;27;10593;-76
2021/12/23 02:09:43;;;;;;;;;19.67;16.00;;;;;;;;5142437;27;11525;-77
2021/12/23 02:12:09;;;;;;;;;21.00;16.33;;;;;;;;5142736;27;11439;-76
2021/12/23 02:14:34;;;;;;;;;18.33;15.67;;;;;;;;5141951;27;13222;-77
2021/12/23 02:17:00;;;;;;;;;16.67;13.00;;;;;;;;5141196;27;13359;-75
2021/12/23 02:19:26;;;;;;;;;20.00;16.00;;;;;;;;5141423;27;11363;-76
2021/12/23 02:21:51;;;;;;;;;13.00;10.00;;;;;;;;5141454;27;12566;-75
2021/12/23 02:24:17;;;;;;;;;18.33;16.00;;;;;;;;5142308;27;11661;-75
2021/12/23 02:26:42;;;;;;;;;16.33;16.00;;;;;;;;5141789;27;10331;-75
2021/12/23 02:29:08;;;;;;;;;11.67;11.67;;;;;;;;5142253;27;8783;-77
2021/12/23 02:31:34;;;;;;;;;14.33;13.00;;;;;;;;5141418;27;11653;-76
2021/12/23 02:33:59;;;;;;;;;18.33;14.33;;;;;;;;5140806;27;11369;-77
2021/12/23 02:36:26;;;;;;;;;16.33;16.00;;;;;;;;5141022;27;11513;-77
2021/12/23 02:38:51;;;;;;;;;18.67;17.00;;;;;;;;5140801;27;13119;-76
2021/12/23 02:41:17;;;;;;;;;20.67;19.00;;;;;;;;5140602;27;10375;-76
2021/12/23 02:43:42;;;;;;;;;20.67;14.67;;;;;;;;5123164;27;11799;-76
2021/12/23 02:46:07;;;;;;;;;22.00;19.00;;;;;;;;5142046;27;9365;-76
2021/12/23 02:48:34;;;;;;;;;19.33;17.33;;;;;;;;5141780;27;11629;-75
2021/12/23 02:51:01;;;;;;;;;18.00;15.33;;;;;;;;5140385;27;13627;-75
2021/12/23 02:53:26;;;;;;;;;18.67;13.33;;;;;;;;5140160;27;10689;-77
2021/12/23 02:55:55;;;;;;;;;18.33;15.67;;;;;;;;5140971;27;9847;-75
2021/12/23 02:58:21;;;;;;;;;18.67;14.33;;;;;;;;5140451;27;11548;-75
2021/12/23 03:00:48;;;;;;;;;16.33;16.00;;;;;;;;5140253;27;10966;-75
2021/12/23 03:03:14;;;;;;;;;15.67;15.67;;;;;;;;5139662;27;11525;-75
2021/12/23 03:05:39;;;;;;;;;13.67;12.00;;;;;;;;5140393;27;11586;-76
2021/12/23 03:08:04;;;;;;;;;19.00;16.00;;;;;;;;5140706;27;12800;-75
2021/12/23 03:10:29;;;;;;;;;17.33;15.00;;;;;;;;5140177;27;11587;-75
2021/12/23 03:12:55;;;;;;;;;15.00;12.00;;;;;;;;5140113;27;10827;-75
2021/12/23 03:15:20;;;;;;;;;15.00;13.00;;;;;;;;5121648;27;10686;-76
2021/12/23 03:17:46;;;;;;;;;17.67;15.00;;;;;;;;5140318;27;8862;-76
2021/12/23 03:20:11;;;;;;;;;10.67;10.67;;;;;;;;5140159;27;10330;-76
2021/12/23 03:22:37;;;;;;;;;14.33;13.00;;;;;;;;5140031;27;11373;-76
2021/12/23 03:25:02;;;;;;;;;19.00;16.00;;;;;;;;5140005;27;12731;-76
2021/12/23 03:27:27;;;;;;;;;15.00;13.67;;;;;;;;5140998;27;10458;-76
2021/12/23 03:29:54;;;;;;;;;15.33;12.67;;;;;;;;5140623;27;11618;-76
2021/12/23 03:32:20;;;;;;;;;20.33;15.00;;;;;;;;5140872;27;9606;-76
2021/12/23 03:34:45;;;;;;;;;16.00;15.33;;;;;;;;5139864;27;14496;-76
2021/12/23 03:37:10;;;;;;;;;17.33;13.00;;;;;;;;5139763;27;13209;-76
2021/12/23 03:39:36;;;;;;;;;22.00;17.33;;;;;;;;5121324;27;13545;-76
2021/12/23 03:42:01;;;;;;;;;19.33;19.33;;;;;;;;5139686;27;13772;-76
2021/12/23 03:44:27;;;;;;;;;29.33;25.00;;;;;;;;5139586;27;12179;-75
2021/12/23 03:46:52;;;;;;;;;23.67;23.00;;;;;;;;5121231;27;15809;-76
2021/12/23 03:49:17;;;;;;;;;23.00;22.00;;;;;;;;5140614;27;10499;-75
2021/12/23 03:51:42;;;;;;;;;16.00;15.33;;;;;;;;5139748;27;10809;-74
2021/12/23 03:54:08;;;;;;;;;26.67;18.33;;;;;;;;5139804;27;13644;-75
2021/12/23 03:56:33;;;;;;;;;24.67;21.00;;;;;;;;5140420;27;13442;-76
2021/12/23 03:58:58;;;;;;;;;23.33;22.33;;;;;;;;5120808;27;12584;-76
2021/12/23 04:01:24;;;;;;;;;19.00;16.33;;;;;;;;5139940;27;11422;-76
2021/12/23 04:03:53;;;;;;;;;20.33;20.33;;;;;;;;5139647;27;12217;-76
2021/12/23 04:06:19;;;;;;;;;25.33;22.00;;;;;;;;5139552;27;12453;-76
2021/12/23 04:08:44;;;;;;;;;24.67;21.33;;;;;;;;5120625;27;12019;-77
2021/12/23 04:11:10;;;;;;;;;24.33;20.33;;;;;;;;5139803;27;12675;-76
2021/12/23 04:13:36;;;;;;;;;22.33;19.00;;;;;;;;5139106;27;10940;-76
2021/12/23 04:16:01;;;;;;;;;19.00;18.00;;;;;;;;5141076;27;12341;-74
2021/12/23 04:18:27;;;;;;;;;21.00;18.00;;;;;;;;5142717;27;13593;-75
2021/12/23 04:20:55;;;;;;;;;21.67;16.67;;;;;;;;5143230;27;8789;-75
2021/12/23 04:23:24;;;;;;;;;13.00;13.00;;;;;;;;5142973;27;10415;-75
2021/12/23 04:25:50;;;;;;;;;19.33;13.67;;;;;;;;5142087;27;13568;-74
2021/12/23 04:28:15;;;;;;;;;23.33;18.00;;;;;;;;5123836;27;11597;-75
2021/12/23 04:30:41;;;;;;;;;19.33;13.00;;;;;;;;5142606;27;13219;-76
2021/12/23 04:33:06;;;;;;;;;27.00;19.00;;;;;;;;5142796;27;9507;-76
2021/12/23 04:35:32;;;;;;;;;19.00;15.67;;;;;;;;5141751;27;12204;-75
2021/12/23 04:37:57;;;;;;;;;22.33;18.67;;;;;;;;5143343;27;13775;-75
2021/12/23 04:40:22;;;;;;;;;18.00;12.33;;;;;;;;5142916;27;12595;-76
2021/12/23 04:42:48;;;;;;;;;29.67;19.67;;;;;;;;5143151;27;13275;-75
2021/12/23 04:45:13;;;;;;;;;19.33;16.00;;;;;;;;5143232;27;13653;-75
2021/12/23 04:47:39;;;;;;;;;30.00;22.00;;;;;;;;5142782;27;13294;-76
2021/12/23 04:50:05;;;;;;;;;20.33;18.00;;;;;;;;5142336;27;12378;-76
2021/12/23 04:52:31;;;;;;;;;25.00;23.00;;;;;;;;5142538;27;12487;-76
2021/12/23 04:54:56;;;;;;;;;29.00;20.33;;;;;;;;5141350;27;11739;-75
2021/12/23 04:57:22;;;;;;;;;24.00;21.00;;;;;;;;5141960;27;11384;-75
2021/12/23 04:59:47;;;;;;;;;25.00;20.33;;;;;;;;5142561;27;11749;-77
2021/12/23 05:02:13;;;;;;;;;24.33;20.33;;;;;;;;5142754;27;11373;-76
2021/12/23 05:04:38;;;;;;;;;15.67;15.00;;;;;;;;5142229;27;8992;-77
2021/12/23 05:07:03;;;;;;;;;21.33;18.33;;;;;;;;5142727;27;13473;-78
2021/12/23 05:09:29;;;;;;;;;30.00;22.67;;;;;;;;5142290;27;13540;-76
2021/12/23 05:11:54;;;;;;;;;24.33;19.00;;;;;;;;5142813;27;13625;-77
2021/12/23 05:14:19;;;;;;;;;21.33;21.33;;;;;;;;5142706;27;14437;-77
2021/12/23 05:16:44;;;;;;;;;30.00;21.67;;;;;;;;5142247;27;12195;-76
2021/12/23 05:19:10;;;;;;;;;22.67;19.00;;;;;;;;5142067;27;13455;-76
2021/12/23 05:21:35;;;;;;;;;33.67;19.67;;;;;;;;5142518;27;13580;-76
2021/12/23 05:24:00;;;;;;;;;21.00;21.00;;;;;;;;5141888;27;13368;-75
2021/12/23 05:26:26;;;;;;;;;25.67;24.33;;;;;;;;5141262;27;13228;-76
2021/12/23 05:28:51;;;;;;;;;18.33;16.00;;;;;;;;5105697;27;11543;-76
2021/12/23 05:31:16;;;;;;;;;19.67;16.67;;;;;;;;5141305;27;13383;-76
2021/12/23 05:33:42;;;;;;;;;22.33;19.33;;;;;;;;5142508;27;11346;-75
2021/12/23 05:36:07;;;;;;;;;24.33;18.00;;;;;;;;5141246;27;13272;-76
2021/12/23 05:38:32;;;;;;;;;18.33;17.33;;;;;;;;5141924;27;11443;-76
2021/12/23 05:40:58;;;;;;;;;19.00;16.67;;;;;;;;5142317;27;13371;-77
2021/12/23 05:43:23;;;;;;;;;25.00;21.67;;;;;;;;5142729;27;11360;-77
2021/12/23 05:45:48;;;;;;;;;19.00;18.00;;;;;;;;5142246;27;10334;-77
2021/12/23 05:48:14;;;;;;;;;20.33;18.00;;;;;;;;5143005;27;13276;-77
2021/12/23 05:50:40;;;;;;;;;26.67;19.00;;;;;;;;5142062;27;10404;-77
2021/12/23 05:53:05;;;;;;;;;21.00;21.00;;;;;;;;5141944;27;10236;-77
2021/12/23 05:55:30;;;;;;;;;16.00;16.00;;;;;;;;5141568;27;11698;-77
2021/12/23 05:57:56;;;;;;;;;25.00;22.00;;;;;;;;5141664;27;11696;-78
2021/12/23 06:00:23;;;;;;;;;26.75;25.25;;;;;;;;5122967;27;11089;-76
2021/12/23 06:02:48;;;;;;;;;19.00;16.00;;;;;;;;5141721;27;11598;-74
2021/12/23 06:05:14;;;;;;;;;27.00;24.75;;;;;;;;5141649;27;13219;-76
2021/12/23 06:07:39;;;;;;;;;23.00;21.25;;;;;;;;5141225;27;13564;-76
2021/12/23 06:10:05;;;;;;;;;30.50;26.50;;;;;;;;5122656;27;12722;-76
2021/12/23 06:12:30;;;;;;;;;27.00;21.25;;;;;;;;5141300;27;13510;-74
2021/12/23 06:14:56;;;;;;;;;27.00;21.00;;;;;;;;5141155;27;13287;-75
2021/12/23 06:17:21;;;;;;;;;6.67;6.00;;;;;;;;5141428;27;8794;-76
2021/12/23 06:19:46;;;;;;;;;23.00;19.00;;;;;;;;5143329;27;22613;-74
2021/12/23 06:22:14;;;;;;;;;23.33;20.33;;;;;;;;5161415;27;22449;-74
2021/12/23 06:24:44;;;;;;;;;24.67;22.67;;;;;;;;5161260;27;12430;-74
2021/12/23 06:27:09;;;;;;;;;26.33;21.00;;;;;;;;5161710;27;11672;-73
2021/12/23 06:29:34;;;;;;;;;15.00;13.67;;;;;;;;5158558;27;12802;-75
2021/12/23 06:31:59;;;;;;;;;21.33;16.00;;;;;;;;5161205;27;13423;-73
2021/12/23 06:34:25;;;;;;;;;26.33;21.33;;;;;;;;5161195;27;13819;-73
2021/12/23 06:36:50;;;;;;;;;23.33;21.67;;;;;;;;5161399;27;12236;-73
2021/12/23 06:39:15;;;;;;;;;24.00;18.00;;;;;;;;5160649;27;11582;-74
2021/12/23 06:41:41;;;;;;;;;22.33;18.67;;;;;;;;5142256;27;14408;-73
2021/12/23 06:44:06;;;;;;;;;20.67;16.00;;;;;;;;5161269;27;12015;-73
2021/12/23 06:46:31;;;;;;;;;21.33;15.67;;;;;;;;5160623;27;11736;-74
2021/12/23 06:48:57;;;;;;;;;22.67;21.00;;;;;;;;5161704;27;11491;-82
2021/12/23 06:51:22;;;;;;;;;21.00;18.00;;;;;;;;5162866;27;12180;-80
2021/12/23 06:53:47;;;;;;;;;17.33;14.67;;;;;;;;5161991;27;11346;-81
2021/12/23 06:56:16;;;;;;;;;23.33;19.00;;;;;;;;5162292;27;13302;-81
2021/12/23 06:58:42;;;;;;;;;24.67;17.33;;;;;;;;5163219;27;13491;-82
2021/12/23 07:01:07;;;;;;;;;23.33;18.33;;;;;;;;5156340;27;11680;-83
2021/12/23 07:03:58;;;;;;;;;18.67;17.33;;;;;;;;5153909;27;10842;-79
2021/12/23 07:06:23;;;;;;;;;18.33;16.33;;;;;;;;5151041;27;12506;-79
2021/12/23 07:08:49;;;;;;;;;20.67;16.33;;;;;;;;5132583;27;11629;-83
2021/12/23 07:11:14;;;;;;;;;26.00;18.67;;;;;;;;5142038;27;10324;-83
2021/12/23 07:13:40;;;;;;;;;25.00;22.00;;;;;;;;5152825;27;10885;-86
2021/12/23 07:16:05;;;;;;;;;31.00;23.33;;;;;;;;5153464;27;12374;-86
2021/12/23 07:18:30;;;;;;;;;22.33;19.00;;;;;;;;5133053;27;16260;-86
2021/12/23 07:20:56;;;;;;;;;29.33;22.33;;;;;;;;5138864;27;13321;-86
2021/12/23 07:23:21;;;;;;;;;27.33;19.00;;;;;;;;5132231;27;14034;-82
2021/12/23 07:25:46;;;;;;;;;29.33;28.67;;;;;;;;5131533;27;12516;-79
2021/12/23 07:28:11;;;;;;;;;32.00;29.67;;;;;;;;5148894;27;12196;-79
2021/12/23 07:30:37;;;;;;;;;27.33;24.33;;;;;;;;5151304;27;12392;-78
2021/12/23 07:33:02;;;;;;;;;38.33;22.67;;;;;;;;5149993;27;13217;-78
2021/12/23 07:35:28;;;;;;;;;26.67;23.33;;;;;;;;5152718;27;13615;-76
2021/12/23 07:37:53;;;;;;;;;20.67;19.33;;;;;;;;5162129;27;13384;-80
2021/12/23 07:40:19;;;;;;;;;18.33;17.33;;;;;;;;5163458;27;9504;-78
2021/12/23 07:42:57;;;;;;;;;24.00;20.67;;;;;;;;5161653;27;12522;-81
2021/12/23 07:45:24;;;;;;;;;28.00;23.00;;;;;;;;5144692;27;16575;-83
2021/12/23 07:47:49;;;;;;;;;31.33;27.00;;;;;;;;5162295;27;11814;-78
2021/12/23 07:50:14;;;;;;;;;27.00;23.67;;;;;;;;5161127;27;12253;-72
2021/12/23 07:52:39;;;;;;;;;24.33;22.67;;;;;;;;5158527;27;14370;-74
2021/12/23 07:55:05;;;;;;;;;28.00;25.33;;;;;;;;5160032;27;10332;-73
2021/12/23 07:57:30;;;;;;;;;32.00;27.33;;;;;;;;5159482;27;11378;-77
2021/12/23 07:59:58;;;;;;;;;31.67;24.67;;;;;;;;5160864;27;10490;-76
2021/12/23 08:02:23;;;;;;;;;42.00;33.25;;;;;;;;5161139;27;11671;-76
2021/12/23 08:04:48;;;;;;;;;40.25;36.50;;;;;;;;5160414;27;13619;-74
2021/12/23 08:07:14;;;;;;;;;57.75;40.75;;;;;;;;5160887;27;11392;-74
2021/12/23 08:09:39;;;;;;;;;40.25;39.75;;;;;;;;5160830;27;13270;-76
2021/12/23 08:12:05;;;;;;;;;46.50;43.00;;;;;;;;5159617;27;11875;-76
2021/12/23 08:14:31;;;;;;;;;48.25;43.00;;;;;;;;5155345;27;12772;-78
2021/12/23 08:16:56;;;;;;;;;38.25;33.75;;;;;;;;5160044;27;10099;-77
2021/12/23 08:19:22;;;;;;;;;48.75;40.00;;;;;;;;5160153;27;14424;-77
2021/12/23 08:21:47;;;;;;;;;29.50;28.50;;;;;;;;5160276;27;13367;-75
2021/12/23 08:24:12;;;;;;;;;34.50;31.00;;;;;;;;5159187;27;13207;-74
2021/12/23 08:26:43;;;;;;;;;46.50;38.00;;;;;;;;5157507;27;14541;-74
2021/12/23 08:29:08;;;;;;;;;46.75;41.75;;;;;;;;5159561;27;10653;-76
2021/12/23 08:31:34;;;;;;;;;37.00;35.50;;;;;;;;5140359;27;15296;-75
2021/12/23 08:34:00;;;;;;;;;44.00;36.67;;;;;;;;5158017;27;13789;-75
2021/12/23 08:36:25;;;;;;;;;34.33;29.00;;;;;;;;5158550;27;14846;-75
2021/12/23 08:38:50;;;;;;;;;37.00;35.00;;;;;;;;5158664;27;13288;-74
2021/12/23 08:41:16;;;;;;;;;42.33;32.67;;;;;;;;5157962;27;11681;-74
2021/12/23 08:43:41;;;;;;;;;32.67;29.00;;;;;;;;5155126;27;13228;-75
2021/12/23 08:46:07;;;;;;;;;35.67;35.67;;;;;;;;5157238;27;13919;-76
2021/12/23 08:48:32;;;;;;;;;33.33;26.67;;;;;;;;5158649;27;13380;-76
2021/12/23 08:50:57;;;;;;;;;37.00;33.75;;;;;;;;5139738;27;13265;-73
2021/12/23 08:53:23;;;;;;;;;39.00;36.00;;;;;;;;5157656;27;12235;-73
2021/12/23 08:55:48;;;;;;;;;44.00;38.33;;;;;;;;5157171;27;11360;-72
2021/12/23 08:58:13;;;;;;;;;39.33;35.33;;;;;;;;5154693;27;13284;-72
2021/12/23 09:00:39;;;;;;;;;31.50;28.25;;;;;;;;5157417;27;12695;-73
2021/12/23 09:03:05;;;;;;;;;36.33;32.00;;;;;;;;5161749;27;11923;-73
2021/12/23 09:05:31;;;;;;;;;36.67;33.00;;;;;;;;5159873;27;13487;-72
2021/12/23 09:07:57;;;;;;;;;35.33;32.67;;;;;;;;5160432;27;9544;-72
2021/12/23 09:10:22;;;;;;;;;34.33;33.33;;;;;;;;5161493;27;11440;-71
2021/12/23 09:12:47;;;;;;;;;37.67;34.33;;;;;;;;5159975;27;11387;-71
2021/12/23 09:15:13;;;;;;;;;34.00;32.33;;;;;;;;5160702;27;11166;-74
2021/12/23 09:17:39;;;;;;;;;25.67;23.33;;;;;;;;5162021;27;10907;-75
2021/12/23 09:20:06;;;;;;;;;25.33;21.00;;;;;;;;5161120;27;13424;-74
2021/12/23 09:22:31;;;;;;;;;33.00;32.67;;;;;;;;5162121;27;10491;-76
2021/12/23 09:25:02;;;;;;;;;35.00;30.67;;;;;;;;5161578;27;13691;-77
2021/12/23 09:27:40;;;;;;;;;37.50;34.50;;;;;;;;5163072;27;8944;-88
2021/12/23 09:32:53;;;;;;;;;33.67;32.67;;;;;;;;5163661;27;10529;-76
2021/12/23 09:35:20;;;;;;;;;34.67;32.33;;;;;;;;5160297;27;12717;-80
2021/12/23 09:37:46;;;;;;;;;34.00;30.00;;;;;;;;5145699;27;13504;-84
2021/12/23 09:40:12;;;;;;;;;38.25;37.25;;;;;;;;5165246;27;10334;-86
2021/12/23 09:42:37;;;;;;;;;40.33;31.33;;;;;;;;5163663;27;11393;-79
2021/12/23 09:45:05;;;;;;;;;41.67;33.33;;;;;;;;5163609;27;10329;-83
2021/12/23 09:47:32;;;;;;;;;36.50;35.00;;;;;;;;5161726;27;10570;-82
2021/12/23 09:49:58;;;;;;;;;34.00;29.67;;;;;;;;5164526;27;13366;-83
2021/12/23 09:52:25;;;;;;;;;38.33;32.33;;;;;;;;5163451;27;12275;-79
2021/12/23 09:54:52;;;;;;;;;39.00;34.00;;;;;;;;5163564;27;12271;-84
2021/12/23 09:57:18;;;;;;;;;37.00;35.33;;;;;;;;5163358;27;11748;-79
2021/12/23 09:59:43;;;;;;;;;42.00;39.50;;;;;;;;5163866;27;11353;-85
2021/12/23 10:02:09;;;;;;;;;40.00;39.00;;;;;;;;5164752;27;13358;-82
2021/12/23 10:04:34;;;;;;;;;39.50;36.50;;;;;;;;5163972;27;11369;-83
2021/12/23 10:06:59;;;;;;;;;37.00;34.33;;;;;;;;5165705;27;13393;-84
2021/12/23 10:09:52;;;;;;;;;42.00;32.00;;;;;;;;5162955;27;12152;-79
2021/12/23 10:31:26;;;;;;;;;40.67;36.33;;;;;;;;5162593;27;11399;-81
2021/12/23 10:39:39;;;;;;;;;53.00;40.00;;;;;;;;5163010;27;11622;-76
2021/12/23 10:42:14;;;;;;;;;44.33;40.67;;;;;;;;5162997;27;13310;-75
2021/12/23 10:44:40;;;;;;;;;43.00;37.33;;;;;;;;5162507;27;13911;-75
2021/12/23 10:47:07;;;;;;;;;42.00;38.00;;;;;;;;5162455;27;12282;-75
2021/12/23 10:49:48;;;;;;;;;32.33;30.33;;;;;;;;5161473;27;11620;-75
2021/12/23 10:52:23;;;;;;;;;23.67;22.33;;;;;;;;5162531;27;13317;-76
2021/12/23 10:58:15;;;;;;;;;40.67;37.67;;;;;;;;5161877;27;13655;-75
2021/12/23 11:00:14;;;;;;;;;36.00;31.33;;;;;;;;5147304;27;10615;-75
2021/12/23 11:02:41;;;;;;;;;43.33;38.00;;;;;;;;5162547;27;13401;-76
2021/12/23 11:05:18;;;;;;;;;42.67;39.00;;;;;;;;5161785;27;13494;-75
2021/12/23 11:07:56;;;;;;;;;47.33;39.00;;;;;;;;5163361;27;10867;-75
2021/12/23 11:10:39;;;;;;;;;44.67;37.33;;;;;;;;5162117;27;9119;-77
